Πλησιέστερες Αναφορές METAR

 

LGTS - Thessaloniki/Makedonia-Elev 7m
Distance from station: Ν 13km
Ενημερώθηκε: 03/12/2021 04:50
Few Clouds
Few Clouds
 Ανεμος από calm
Ανεμος: Απνοια
Θερμοκρασία: 7°C
Σημείο Δρόσου: 6°C
Υγρασία: 93%
Βαρόμετρο: 1009 hPa
Clouds: Few Clouds
Visibility: 10 km
Cloud details: Few Clouds 914 m
2021/12/03 02:50 LGTS 030250Z 00000KT 9999 FEW030 07/06 Q1009 NOSIG
LGAV - Athens/Elef. Venizelos-Elev 94m
Distance from station: ΝΝΑ 312km
Ενημερώθηκε: 03/12/2021 04:50
Μερικώς νεφελώδης
Μερικώς νεφελώδης
 Ανεμος από calm
Ανεμος: Απνοια
Θερμοκρασία: 12°C
Σημείο Δρόσου: 10°C
Υγρασία: 88%
Βαρόμετρο: 1013 hPa
Clouds: Μερικώς νεφελώδης
Visibility: 10 km
Cloud details: Few Clouds 610 m
Μερικώς νεφελώδης 914 m
2021/12/03 02:50 LGAV 030250Z 00000KT 9999 FEW020 SCT030 12/10 Q1013 NOSIG
 
LGAL - Alexandroupolis-Elev 3m
Distance from station: Α 251km
Ενημερώθηκε: 03/12/2021 04:50
Few Clouds
Few Clouds
 Ανεμος από Δ
Ανεμος: Δ 9 km/h
Θερμοκρασία: 13°C
Σημείο Δρόσου: 10°C
Υγρασία: 82%
Βαρόμετρο: 1010 hPa
Clouds: Few Clouds
Visibility: 10 km
Cloud details: Few Clouds 610 m
2021/12/03 02:50 LGAL 030250Z 26005KT 9999 FEW020 13/10 Q1010
LGKV - Kavala/Crysoupolis-Elev 5m
Distance from station: ΑΒΑ 144km
Ενημερώθηκε: 02/12/2021 20:20
Μη Ενημερωμένο!
Few Clouds
Few Clouds
 Ανεμος από Δ
Ανεμος: Δ 6 km/h
Θερμοκρασία: 8°C
Σημείο Δρόσου: 6°C
Υγρασία: 87%
Βαρόμετρο: 1011 hPa
Clouds: Few Clouds
Visibility: 10 km
Cloud details: Few Clouds 914 m
2021/12/02 18:20 LGKV 021820Z 28003KT 9999 FEW030 08/06 Q1011
 
LGSK - Skiathos Island-Elev 15m
Distance from station: ΝΝΑ 168km
Ενημερώθηκε: 02/12/2021 11:50
Μη Ενημερωμένο!
Αίθριος
Αίθριος
 Ανεμος από Ν
Ανεμος: Ν 9 km/h
Θερμοκρασία: 16°C
Σημείο Δρόσου: 6°C
Υγρασία: 52%
Βαρόμετρο: 1014 hPa
Συνθήκες: Αίθριος
Visibility: greater than 10 km
2021/12/02 09:50 LGSK 020950Z 18005KT CAVOK 16/06 Q1014
LGLM - Limnos Island-Elev 5m
Distance from station: ΑΝΑ 210km
Ενημερώθηκε: 03/12/2021 04:50
Αίθριος
Αίθριος
 Ανεμος από ΝΝΔ
Ανεμος: ΝΝΔ 22 km/h
Θερμοκρασία: 16°C
Σημείο Δρόσου: 12°C
Υγρασία: 77%
Βαρόμετρο: 1010 hPa
Συνθήκες: Αίθριος
Visibility: greater than 10 km
2021/12/03 02:50 LGLM 030250Z 21012KT CAVOK 16/12 Q1010
 
LGMT - Mitilini Island-Elev 17m
Distance from station: ΑΝΑ 358km
Ενημερώθηκε: 02/12/2021 22:50
Μη Ενημερωμένο!
Μερικώς νεφελώδης
Μερικώς νεφελώδης
 Ανεμος από ΝΝΔ
Ανεμος: ΝΝΔ 22 km/h, Ριπή: 46 km/h
Θερμοκρασία: 15°C
Σημείο Δρόσου: 11°C
Υγρασία: 77%
Βαρόμετρο: 1015 hPa
Clouds: Μερικώς νεφελώδης
Visibility: 10 km
Cloud details: Μερικώς νεφελώδης 762 m
2021/12/02 20:50 LGMT 022050Z 20012G25KT 9999 SCT025 15/11 Q1015
LGSY - Skiros Island-Elev 15m
Distance from station: ΝΑ 227km
Ενημερώθηκε: 02/12/2021 19:50
Μη Ενημερωμένο!
Αίθριος
Αίθριος
 Ανεμος από ΝΝΔ
Ανεμος: ΝΝΔ 22 km/h
Θερμοκρασία: 15°C
Σημείο Δρόσου: 9°C
Υγρασία: 68%
Βαρόμετρο: 1013 hPa
Συνθήκες: Αίθριος
Visibility: greater than 10 km
2021/12/02 17:50 LGSY 021750Z 20012KT CAVOK 15/09 Q1013 BLU
 
LGKZ - Kozani-Elev 628m
Distance from station: ΔΝΔ 102km
Ενημερώθηκε: 03/12/2021 04:50

 Ανεμος από Ν
Ανεμος: Ν 13 km/h
Θερμοκρασία: 8°C
Wind Chill: 6°C
Σημείο Δρόσου: 4°C
Υγρασία: 76%
Βαρόμετρο: 1009 hPa
2021/12/03 02:50 LGKZ 030250Z AUTO 18007KT 170V230 //// // ////// 08/04 Q1009 RE//
LGIO - Ioannina-Elev 476m
Distance from station: ΔΝΔ 209km
Ενημερώθηκε: 03/12/2021 04:50
Ασθενής βροχή
Ασθενής βροχή
 Ανεμος από varies
Ανεμος: varies 4 km/h
Θερμοκρασία: 10°C
Σημείο Δρόσου: 9°C
Υγρασία: 94%
Βαρόμετρο: 1010 hPa
Συνθήκες: Ασθενής βροχή
2021/12/03 02:50 LGIO 030250Z AUTO VRB02KT //// -RA ////// 10/09 Q1010 RE//
 
LGZA - Zakinthos-Elev 3m
Distance from station: ΝΝΔ 367km
Ενημερώθηκε: 02/12/2021 19:50
Μη Ενημερωμένο!
Σχεδόν νεφελώδης
Σχεδόν νεφελώδης
 Ανεμος από varies
Ανεμος: varies 6 km/h
Θερμοκρασία: 15°C
Σημείο Δρόσου: 13°C
Υγρασία: 88%
Βαρόμετρο: 1014 hPa
Clouds: Σχεδόν νεφελώδης
Visibility: 10 km
Cloud details: Few Clouds 427 m
Few Clouds 488 m
Σχεδόν νεφελώδης 610 m
2021/12/02 17:50 LGZA 021750Z VRB03KT 9999 FEW014 FEW016TCU BKN020 15/13 Q1014
LGKR - Corfu Island-Elev 2m
Distance from station: ΔΝΔ 282km
Ενημερώθηκε: 03/12/2021 04:50
Σχεδόν νεφελώδης
Σχεδόν νεφελώδης
 Ανεμος από Ν
Ανεμος: Ν 31 km/h
Θερμοκρασία: 16°C
Σημείο Δρόσου: 11°C
Υγρασία: 72%
Βαρόμετρο: 1008 hPa
Clouds: Σχεδόν νεφελώδης
Visibility: 10 km
Cloud details: Μερικώς νεφελώδης 762 m
Σχεδόν νεφελώδης 2438 m
2021/12/03 02:50 LGKR 030250Z 18017KT 9999 SCT025 BKN080 16/11 Q1008 NOSIG
 
LGSO - Syros Island-Elev 72m
Distance from station: ΝΝΑ 397km
Ενημερώθηκε: 03/12/2021 04:50

 Ανεμος από Ν
Ανεμος: Ν 24 km/h
Θερμοκρασία: 17°C
Σημείο Δρόσου: 13°C
Υγρασία: 77%
Βαρόμετρο: 1014 hPa
2021/12/03 02:50 LGSO 030250Z AUTO 19013KT 150V210 //// // ////// 17/13 Q1014 RE//
LGMK - Mikonos Island-Elev 123m
Distance from station: ΝΝΑ 412km
Ενημερώθηκε: 02/12/2021 18:50
Μη Ενημερωμένο!
Μερικώς νεφελώδης
Μερικώς νεφελώδης
 Ανεμος από ΝΝΔ
Ανεμος: ΝΝΔ 11 km/h
Θερμοκρασία: 16°C
Σημείο Δρόσου: 9°C
Υγρασία: 63%
Βαρόμετρο: 1015 hPa
Clouds: Μερικώς νεφελώδης
Visibility: 10 km
Cloud details: Μερικώς νεφελώδης 457 m
2021/12/02 16:50 LGMK 021650Z 20006KT 9999 SCT015 16/09 Q1015
 
LGSR - Santorini Island-Elev 40m
Distance from station: ΝΝΑ 520km
Ενημερώθηκε: 03/12/2021 02:20
Μη Ενημερωμένο!
Μερικώς νεφελώδης
Μερικώς νεφελώδης
 Ανεμος από Ν
Ανεμος: Ν 11 km/h
Θερμοκρασία: 17°C
Σημείο Δρόσου: 11°C
Υγρασία: 68%
Βαρόμετρο: 1017 hPa
Clouds: Μερικώς νεφελώδης
Visibility: 10 km
Cloud details: Μερικώς νεφελώδης 762 m
2021/12/03 00:20 LGSR 030020Z 18006KT 9999 SCT025 17/11 Q1017
LGKL - Kalamata-Elev 8m
Distance from station: Ν 405km
Ενημερώθηκε: 03/12/2021 04:50

 Ανεμος από varies
Ανεμος: varies 4 km/h
Θερμοκρασία: 9°C
Σημείο Δρόσου: 9°C
Υγρασία: 100%
Βαρόμετρο: 1014 hPa
2021/12/03 02:50 LGKL 030250Z AUTO VRB02KT //// // ////// 09/09 Q1014 RERA
 
LGIR - Iraklion/Crete-Elev 5m
Distance from station: ΝΝΑ 622km
Ενημερώθηκε: 03/12/2021 04:50
Few Clouds
Few Clouds
 Ανεμος από Ν
Ανεμος: Ν 28 km/h
Θερμοκρασία: 15°C
Σημείο Δρόσου: 11°C
Υγρασία: 77%
Βαρόμετρο: 1016 hPa
Clouds: Few Clouds
Visibility: 10 km
Cloud details: Few Clouds 762 m
2021/12/03 02:50 LGIR 030250Z 17015KT 9999 FEW025 15/11 Q1016 NOSIG
LGRP - Rhodes-Elev 5m
Distance from station: ΝΑ 649km
Ενημερώθηκε: 03/12/2021 04:50
Μερικώς νεφελώδης
Μερικώς νεφελώδης
 Ανεμος από varies
Ανεμος: varies 4 km/h
Θερμοκρασία: 15°C
Σημείο Δρόσου: 13°C
Υγρασία: 88%
Βαρόμετρο: 1017 hPa
Clouds: Μερικώς νεφελώδης
Visibility: 10 km
Cloud details: Few Clouds 549 m
Μερικώς νεφελώδης 762 m
2021/12/03 02:50 LGRP 030250Z VRB02KT 9999 FEW018 SCT025 15/13 Q1017 NOSIG
 
LWOH - Ohrid/FYROM-Elev 761m
Distance from station: ΔΒΔ 188km
Ενημερώθηκε: 02/12/2021 22:00
Μη Ενημερωμένο!
Σχεδόν νεφελώδης
Σχεδόν νεφελώδης
 Ανεμος από ΝΝΔ
Ανεμος: ΝΝΔ 9 km/h
Θερμοκρασία: 9°C
Wind Chill: 7°C
Σημείο Δρόσου: 5°C
Υγρασία: 76%
Βαρόμετρο: 1008 hPa
Clouds: Σχεδόν νεφελώδης
Visibility: 10 km
Cloud details: Few Clouds 457 m
Σχεδόν νεφελώδης 1067 m
2021/12/02 20:00 LWOH 022000Z 21005KT 9999 FEW015 BKN035 09/05 Q1008
LBSF - Sofia/Bulgaria-Elev 595m
Distance from station: Β 227km
Ενημερώθηκε: 03/12/2021 05:00
Μερικώς νεφελώδης
Μερικώς νεφελώδης
 Ανεμος από ΝΝΔ
Ανεμος: ΝΝΔ 33 km/h, Ριπή: 63 km/h
Θερμοκρασία: 13°C
Σημείο Δρόσου: 1°C
Υγρασία: 44%
Βαρόμετρο: 1005 hPa
Clouds: Μερικώς νεφελώδης
Visibility: 10 km
Cloud details: Few Clouds 1859 m
Μερικώς νεφελώδης 2499 m
2021/12/03 03:00 LBSF 030300Z 20018G34KT 130V230 9999 FEW061 SCT082 13/01 Q1005 NOSIG
Σημερινά ρεκόρ Μετεωρολογικού Σταθμού
Η Ελάχιστη τιμή Βαρόμετρου των 1009.4 hPa ξεπέρασε τη Ελάχιστη Μηνιαία τιμή των 1010.3 hPa που σημειώθηκε στις 02/12/2021 κατά -0.9 hPa
Η Μέγιστη τιμή Σημείου Δρόσου των 7.8°C ξεπέρασε τη Μέγιστη Μηνιαία τιμή των 7.4°C που σημειώθηκε στις 02/12/2021 κατά 0.4°